Time;durP1;ratioP1;P1;durP2;ratioP2;P2;SDS_P1;SDS_P2;PMS_P1;PMS_P2;Temp;Humidity;BMP_temperature;BMP_pressure;BME280_temperature;BME280_humidity;BME280_pressure;Samples;Min_cycle;Max_cycle;Signal;HPM_P1;HPM_P2
2024/05/01 00:04:35;;;;;;;8.25;2.53;;;;;;;16.65;74.08;100927.06;10832702;26;20511;-17
2024/05/01 00:09:39;;;;;;;9.00;2.22;;;;;;;16.80;73.88;100921.94;10836519;26;20011;-17
2024/05/01 00:14:42;;;;;;;12.10;2.38;;;;;;;16.95;72.62;100910.22;10838035;26;20111;-17
2024/05/01 00:19:49;;;;;;;6.72;1.85;;;;;;;16.73;73.86;100892.72;10838789;26;20803;-17
2024/05/01 00:24:53;;;;;;;7.85;2.50;;;;;;;16.97;70.48;100886.22;10836194;26;20016;-17
2024/05/01 00:29:59;;;;;;;9.60;2.30;;;;;;;17.39;67.44;100867.31;10834847;26;20017;-17
2024/05/01 00:35:06;;;;;;;8.45;2.00;;;;;;;17.38;67.33;100869.22;10840003;26;20012;-17
2024/05/01 00:40:10;;;;;;;9.32;2.05;;;;;;;17.06;69.88;100870.53;10836194;26;21470;-17
2024/05/01 00:45:14;;;;;;;9.95;2.30;;;;;;;16.89;72.65;100879.09;10839176;26;20077;-17
2024/05/01 00:50:25;;;;;;;9.38;2.45;;;;;;;16.75;74.70;100876.88;10834649;26;20082;-17
2024/05/01 00:55:32;;;;;;;10.35;2.90;;;;;;;16.48;76.72;100883.28;10842730;26;20019;-17
2024/05/01 01:00:36;;;;;;;8.52;3.10;;;;;;;16.29;78.36;100878.59;10832741;26;21324;-17
2024/05/01 01:05:43;;;;;;;10.13;3.28;;;;;;;16.14;79.95;100895.69;10828872;26;21461;-17
2024/05/01 01:10:46;;;;;;;9.07;3.50;;;;;;;15.94;81.20;100886.66;10829601;26;20342;-18
2024/05/01 01:15:50;;;;;;;8.23;3.70;;;;;;;15.88;82.22;100883.41;10823962;26;20488;-18
2024/05/01 01:20:57;;;;;;;7.72;3.90;;;;;;;15.74;82.96;100878.44;10833405;26;20118;-17
2024/05/01 01:26:03;;;;;;;9.85;4.43;;;;;;;15.65;83.93;100874.34;10835202;26;20370;-16
2024/05/01 01:31:07;;;;;;;11.55;3.88;;;;;;;15.55;84.32;100880.25;10828901;26;20015;-17
2024/05/01 01:36:11;;;;;;;8.13;3.65;;;;;;;15.36;85.53;100868.19;10828129;26;20007;-17
2024/05/01 01:41:17;;;;;;;;;;;;;;;15.33;85.97;100858.06;10830311;26;20027;-16
2024/05/01 01:46:21;;;;;;;10.63;3.90;;;;;;;15.33;85.85;100870.81;10832142;26;19941;-16
2024/05/01 01:51:25;;;;;;;9.65;3.75;;;;;;;15.24;86.29;100862.84;10828884;26;20012;-16
2024/05/01 01:56:31;;;;;;;8.02;3.78;;;;;;;15.18;86.38;100866.91;10826001;26;20483;-16
2024/05/01 02:01:40;;;;;;;7.78;3.83;;;;;;;15.21;86.25;100874.34;10802871;26;24192;-17
2024/05/01 02:06:44;;;;;;;10.43;3.65;;;;;;;15.13;86.79;100875.28;10832336;26;20118;-21
2024/05/01 02:11:50;;;;;;;8.43;3.25;;;;;;;15.03;87.54;100889.31;10836583;26;20019;-22
2024/05/01 02:16:54;;;;;;;9.63;4.35;;;;;;;15.06;87.91;100885.91;10840629;26;20031;-21
2024/05/01 02:21:58;;;;;;;8.48;3.67;;;;;;;14.98;88.42;100892.25;10841496;26;20023;-21
2024/05/01 02:27:05;;;;;;;9.50;3.60;;;;;;;14.89;88.88;100891.59;10844146;26;20049;-21
2024/05/01 02:32:09;;;;;;;8.85;3.70;;;;;;;14.82;89.92;100898.38;10843561;26;20011;-22
2024/05/01 02:37:13;;;;;;;8.90;3.55;;;;;;;14.73;90.06;100889.59;10844248;26;20488;-21
2024/05/01 02:42:19;;;;;;;7.55;3.67;;;;;;;14.68;90.92;100887.13;10841015;26;20597;-21
2024/05/01 02:47:23;;;;;;;12.15;3.90;;;;;;;14.55;91.50;100880.19;10843387;26;20107;-21
2024/05/01 02:52:27;;;;;;;8.52;3.40;;;;;;;14.60;92.00;100877.25;10840803;26;21982;-21
2024/05/01 02:57:34;;;;;;;11.07;3.72;;;;;;;14.46;92.03;100871.44;10854478;26;21177;-22
2024/05/01 03:02:38;;;;;;;7.68;3.33;;;;;;;14.50;92.08;100875.81;10840406;26;20289;-21
2024/05/01 03:07:46;;;;;;;7.95;3.65;;;;;;;14.48;92.14;100875.38;10831623;26;23558;-20
2024/05/01 03:12:52;;;;;;;7.72;3.50;;;;;;;14.38;92.54;100877.75;10846807;26;20618;-21
2024/05/01 03:17:56;;;;;;;12.50;3.55;;;;;;;14.37;93.14;100859.94;10829298;26;20008;-21
2024/05/01 03:23:00;;;;;;;10.57;4.03;;;;;;;14.26;93.38;100845.31;10848157;26;20016;-21
2024/05/01 03:28:07;;;;;;;7.82;3.58;;;;;;;14.26;93.53;100854.22;10847907;26;20011;-21
2024/05/01 03:33:11;;;;;;;14.32;3.58;;;;;;;14.32;93.95;100847.44;10846235;26;20026;-21
2024/05/01 03:38:15;;;;;;;11.48;3.95;;;;;;;14.33;93.06;100805.78;10786951;26;20020;-20
2024/05/01 03:43:21;;;;;;;8.93;3.40;;;;;;;14.23;94.28;100811.66;10817470;26;20725;-21
2024/05/01 03:48:25;;;;;;;6.85;3.10;;;;;;;14.27;93.60;100817.94;10846549;26;20012;-19
2024/05/01 03:53:29;;;;;;;11.75;3.90;;;;;;;14.46;92.12;100787.66;10852494;26;23920;-21
2024/05/01 03:58:35;;;;;;;9.70;3.42;;;;;;;14.33;92.93;100778.75;10844252;26;20274;-21
2024/05/01 04:03:39;;;;;;;11.50;3.70;;;;;;;14.41;92.28;100760.88;10846203;26;20030;-22
2024/05/01 04:08:43;;;;;;;9.02;3.10;;;;;;;14.49;92.09;100771.53;10847348;26;20022;-21
2024/05/01 04:13:49;;;;;;;8.32;3.17;;;;;;;14.59;90.61;100764.84;10844577;26;20547;-21
2024/05/01 04:18:53;;;;;;;8.63;2.60;;;;;;;14.50;91.00;100761.50;10820173;26;20018;-20
2024/05/01 04:23:57;;;;;;;9.35;2.65;;;;;;;14.57;90.42;100745.47;10834143;26;27483;-20
2024/05/01 04:29:03;;;;;;;6.82;2.85;;;;;;;14.57;90.45;100748.19;10842050;26;20436;-21
2024/05/01 04:34:07;;;;;;;8.18;2.63;;;;;;;14.49;90.52;100763.44;10834198;26;20008;-21
2024/05/01 04:39:11;;;;;;;6.90;2.58;;;;;;;14.53;90.56;100761.59;10833067;26;23178;-21
2024/05/01 04:44:18;;;;;;;8.73;2.65;;;;;;;14.51;91.03;100761.16;10837303;26;20016;-21
2024/05/01 04:49:21;;;;;;;12.15;2.75;;;;;;;14.60;90.58;100768.34;10841410;26;21274;-21
2024/05/01 04:54:25;;;;;;;7.50;2.85;;;;;;;14.78;89.92;100756.88;10839636;26;20027;-21
2024/05/01 04:59:32;;;;;;;6.20;2.58;;;;;;;14.85;89.25;100750.88;10839504;26;20680;-21
2024/05/01 05:04:36;;;;;;;10.85;3.65;;;;;;;14.87;89.88;100756.72;10836903;26;20131;-20
2024/05/01 05:09:39;;;;;;;;;;;;;;;15.03;88.62;100760.25;10805860;26;22012;-21
2024/05/01 05:14:47;;;;;;;10.13;2.70;;;;;;;15.10;88.64;100752.31;10820092;26;19945;-20
2024/05/01 05:19:51;;;;;;;7.68;3.20;;;;;;;15.25;87.55;100760.81;10826188;26;20007;-21
2024/05/01 05:24:55;;;;;;;7.03;2.92;;;;;;;15.74;86.05;100755.78;10831191;26;20749;-22
2024/05/01 05:30:01;;;;;;;10.60;3.50;;;;;;;16.10;83.70;100747.34;10828053;26;20016;-21
2024/05/01 05:35:06;;;;;;;10.30;3.78;;;;;;;16.49;82.68;100750.06;10812769;26;20043;-21
2024/05/01 05:40:11;;;;;;;9.23;3.38;;;;;;;16.67;81.00;100750.41;10825782;26;20039;-21
2024/05/01 05:45:17;;;;;;;10.63;3.22;;;;;;;17.01;80.06;100737.88;10837402;26;24024;-21
2024/05/01 05:50:21;;;;;;;7.00;3.20;;;;;;;17.15;78.98;100727.28;10836446;26;20426;-21
2024/05/01 05:55:26;;;;;;;11.38;3.17;;;;;;;17.54;77.61;100716.25;10826615;26;20114;-21
2024/05/01 06:00:32;;;;;;;;;;;;;;;17.48;76.19;100706.84;10826022;26;20023;-21
2024/05/01 06:05:36;;;;;;;6.85;2.53;;;;;;;17.95;74.40;100726.16;10831463;26;19932;-21
2024/05/01 06:10:40;;;;;;;8.45;2.60;;;;;;;18.60;73.09;100735.91;10814621;26;20909;-22
2024/05/01 06:15:47;;;;;;;6.35;2.40;;;;;;;18.92;71.38;100720.69;10824845;26;20822;-22
2024/05/01 06:20:51;;;;;;;8.15;2.47;;;;;;;18.77;71.00;100721.72;10845238;26;20453;-22
2024/05/01 06:25:56;;;;;;;10.20;2.72;;;;;;;18.92;70.56;100717.19;10806772;26;20008;-21
2024/05/01 06:31:03;;;;;;;8.18;2.70;;;;;;;18.99;70.27;100721.91;10800679;26;20060;-23
2024/05/01 06:36:07;;;;;;;7.63;2.60;;;;;;;19.41;69.03;100708.66;10824662;26;20031;-21
2024/05/01 06:41:11;;;;;;;9.10;3.10;;;;;;;19.66;68.69;100702.63;10832709;26;20731;-22
2024/05/01 06:46:21;;;;;;;8.45;3.20;;;;;;;19.17;68.30;100703.81;10833574;26;20153;-21
2024/05/01 06:51:25;;;;;;;9.23;3.20;;;;;;;19.60;66.77;100707.66;10833789;26;20023;-21
2024/05/01 06:56:28;;;;;;;8.50;2.97;;;;;;;19.96;66.11;100703.16;10844314;26;20023;-22
2024/05/01 07:01:35;;;;;;;9.07;2.80;;;;;;;20.04;65.17;100699.31;10836051;26;20707;-21
2024/05/01 07:06:43;;;;;;;10.68;2.65;;;;;;;19.84;65.49;100681.69;10836260;26;20130;-21
2024/05/01 07:11:47;;;;;;;6.47;2.58;;;;;;;20.01;65.35;100678.25;10831553;26;20636;-22
2024/05/01 07:16:53;;;;;;;6.97;2.67;;;;;;;19.88;65.95;100663.41;10840283;26;20472;-22
2024/05/01 07:21:57;;;;;;;6.32;2.50;;;;;;;19.88;65.44;100660.69;10854494;26;31962;-21
2024/05/01 07:27:01;;;;;;;;;;;;;;;20.50;63.49;100655.06;10813347;26;24786;-21
2024/05/01 07:32:08;;;;;;;7.40;2.65;;;;;;;20.48;63.39;100649.22;10897978;26;20508;-22
2024/05/01 07:37:11;;;;;;;8.38;2.70;;;;;;;20.66;62.65;100641.81;10848096;26;20118;-21
2024/05/01 07:42:15;;;;;;;10.85;2.50;;;;;;;20.97;62.69;100640.28;10854400;26;20027;-21
2024/05/01 07:47:21;;;;;;;;;;;;;;;20.22;64.85;100621.09;10814123;26;20030;-22
2024/05/01 07:52:25;;;;;;;9.68;2.58;;;;;;;20.25;63.29;100621.47;10820539;26;23089;-21
2024/05/01 07:57:29;;;;;;;;;;;;;;;20.81;62.97;100607.13;10785224;26;20229;-22
2024/05/01 08:02:35;;;;;;;6.95;2.53;;;;;;;21.27;61.65;100598.88;10829590;26;19933;-22
2024/05/01 08:07:39;;;;;;;7.05;2.90;;;;;;;21.23;60.82;100592.66;10816417;26;20013;-21
2024/05/01 08:12:43;;;;;;;7.90;3.30;;;;;;;21.36;60.48;100590.31;10804020;26;20348;-21
2024/05/01 08:17:49;;;;;;;10.43;4.22;;;;;;;22.16;59.07;100584.88;10812937;26;20082;-21
2024/05/01 08:22:53;;;;;;;11.50;4.00;;;;;;;22.03;59.76;100576.34;10831384;26;20099;-22
2024/05/01 08:27:57;;;;;;;9.43;3.83;;;;;;;22.57;57.67;100581.50;10826954;26;23671;-22
2024/05/01 08:33:03;;;;;;;9.23;4.40;;;;;;;23.11;56.69;100581.81;10828820;26;20011;-21
2024/05/01 08:38:07;;;;;;;10.52;4.80;;;;;;;23.08;56.21;100577.91;10853272;26;20012;-16
2024/05/01 08:43:11;;;;;;;8.10;4.20;;;;;;;22.80;58.62;100568.00;10833894;26;22323;-17
2024/05/01 08:48:19;;;;;;;10.27;5.20;;;;;;;23.64;56.44;100562.03;10839436;26;20012;-17
2024/05/01 08:53:23;;;;;;;11.50;4.75;;;;;;;23.78;54.54;100561.06;10841894;26;20030;-17
2024/05/01 08:58:27;;;;;;;11.15;5.40;;;;;;;23.86;55.66;100555.06;10852281;26;20091;-16
2024/05/01 09:03:34;;;;;;;12.35;5.53;;;;;;;24.35;54.60;100560.28;10805511;26;20016;-17
2024/05/01 09:08:38;;;;;;;10.43;5.28;;;;;;;24.39;54.17;100559.03;10838963;26;20462;-16
2024/05/01 09:13:50;;;;;;;13.50;5.88;;;;;;;24.32;55.63;100567.38;10835278;26;20716;-16
2024/05/01 09:19:02;;;;;;;12.77;5.90;;;;;;;24.28;53.36;100556.44;10839595;26;22890;-17
2024/05/01 09:24:08;;;;;;;11.75;5.32;;;;;;;24.81;54.45;100548.56;10840175;26;21702;-17
2024/05/01 09:29:12;;;;;;;11.95;5.85;;;;;;;24.84;54.51;100540.25;10828479;26;21333;-18
2024/05/01 09:34:22;;;;;;;15.32;6.25;;;;;;;24.79;54.01;100543.47;10861204;26;20012;-17
2024/05/01 09:39:26;;;;;;;8.48;4.80;;;;;;;24.81;53.07;100537.56;10845839;26;20800;-17
2024/05/01 09:44:35;;;;;;;13.60;6.20;;;;;;;24.26;53.38;100523.16;10836378;26;20022;-18
2024/05/01 09:49:41;;;;;;;9.98;5.53;;;;;;;24.49;55.94;100516.09;10816671;26;21480;-18
2024/05/01 09:54:45;;;;;;;10.70;5.97;;;;;;;24.94;53.16;100509.06;10829484;26;20019;-17
2024/05/01 09:59:49;;;;;;;9.70;5.50;;;;;;;24.49;55.16;100507.88;10827128;26;23556;-18
2024/05/01 10:04:59;;;;;;;12.65;5.80;;;;;;;25.21;51.24;100506.16;10835926;26;20093;-17
2024/05/01 10:10:04;;;;;;;12.13;5.63;;;;;;;25.95;49.80;100491.25;10838075;26;20058;-17
2024/05/01 10:15:09;;;;;;;12.80;5.97;;;;;;;25.87;50.97;100483.16;10838543;26;20012;-18
2024/05/01 10:20:15;;;;;;;10.80;5.65;;;;;;;26.14;52.06;100477.38;10844635;26;20496;-18
2024/05/01 10:25:25;;;;;;;11.43;5.47;;;;;;;25.91;50.04;100477.56;10836838;26;21118;-18
2024/05/01 10:30:36;;;;;;;11.30;5.68;;;;;;;25.29;50.74;100465.56;10829023;26;20083;-22
2024/05/01 10:35:42;;;;;;;11.80;5.05;;;;;;;26.40;48.65;100461.03;10831411;26;20011;-21
2024/05/01 10:40:46;;;;;;;9.65;5.03;;;;;;;26.79;48.13;100457.25;10829242;26;21551;-22
2024/05/01 10:45:54;;;;;;;12.50;5.55;;;;;;;26.68;49.05;100446.53;10828801;26;21483;-27
2024/05/01 10:51:01;;;;;;;8.60;5.57;;;;;;;26.69;48.21;100442.56;10830705;26;20027;-21
2024/05/01 10:56:05;;;;;;;11.90;5.30;;;;;;;26.91;47.27;100426.22;10801049;26;20578;-22
2024/05/01 11:01:09;;;;;;;11.18;5.13;;;;;;;26.73;49.46;100431.44;10797421;26;20715;-23
2024/05/01 11:06:16;;;;;;;11.43;5.60;;;;;;;26.84;49.23;100409.91;10815624;26;20915;-23
2024/05/01 11:11:20;;;;;;;11.50;5.10;;;;;;;26.14;48.41;100396.78;10828874;26;20023;-21
2024/05/01 11:16:23;;;;;;;11.15;5.00;;;;;;;27.40;46.03;100393.66;10799778;26;20063;-22
2024/05/01 11:21:30;;;;;;;11.65;5.78;;;;;;;26.20;47.78;100395.09;10836362;26;20011;-22
2024/05/01 11:26:34;;;;;;;11.63;5.70;;;;;;;27.48;46.99;100382.44;10832391;26;20590;-23
2024/05/01 11:31:38;;;;;;;9.90;5.38;;;;;;;27.38;46.35;100387.81;10832404;26;20130;-22
2024/05/01 11:36:44;;;;;;;9.93;5.28;;;;;;;27.43;45.17;100369.94;10780200;26;20012;-22
2024/05/01 11:41:48;;;;;;;13.75;5.35;;;;;;;27.88;49.10;100371.66;10820625;26;21376;-21
2024/05/01 11:46:52;;;;;;;13.15;5.80;;;;;;;27.30;45.97;100356.13;10832796;26;20027;-22
2024/05/01 11:51:58;;;;;;;9.23;4.85;;;;;;;27.88;47.27;100355.09;10833730;26;20016;-23
2024/05/01 11:57:02;;;;;;;12.77;5.80;;;;;;;27.73;48.23;100352.03;10825189;26;20026;-22
2024/05/01 12:02:08;;;;;;;11.57;5.65;;;;;;;27.72;48.39;100347.75;10815751;26;20951;-22
2024/05/01 12:07:15;;;;;;;9.07;5.00;;;;;;;28.30;44.62;100337.09;10786709;26;20081;-22
2024/05/01 12:12:19;;;;;;;15.38;5.63;;;;;;;28.19;47.65;100336.66;10832987;26;20062;-23
2024/05/01 12:17:23;;;;;;;8.40;5.82;;;;;;;27.90;48.38;100320.31;10839431;26;20026;-22
2024/05/01 12:22:29;;;;;;;11.50;6.18;;;;;;;28.21;47.59;100314.91;10836358;26;20008;-23
2024/05/01 12:27:33;;;;;;;11.48;5.88;;;;;;;28.26;47.77;100302.53;10806513;26;20007;-23
2024/05/01 12:33:13;;;;;;;10.77;7.15;;;;;;;28.01;46.47;100293.09;10853747;26;21201;-22
2024/05/01 12:38:20;;;;;;;10.60;6.40;;;;;;;28.01;49.01;100292.31;10810842;26;21205;-22
2024/05/01 12:43:29;;;;;;;12.48;7.57;;;;;;;28.71;48.00;100285.44;10837709;26;21139;-23
2024/05/01 12:48:58;;;;;;;9.45;6.72;;;;;;;27.90;48.52;100275.38;10832372;26;20019;-23
2024/05/01 12:54:07;;;;;;;10.73;5.63;;;;;;;27.89;46.47;100268.31;10831001;26;21367;-23
2024/05/01 12:59:14;;;;;;;12.18;6.22;;;;;;;27.70;49.06;100254.38;10827354;26;20392;-23
2024/05/01 13:04:41;;;;;;;9.85;5.90;;;;;;;28.33;45.25;100250.56;10831944;26;20643;-22
2024/05/01 13:09:48;;;;;;;12.80;6.90;;;;;;;28.22;46.28;100230.81;10832845;26;20023;-23
2024/05/01 13:14:52;;;;;;;12.77;6.82;;;;;;;28.42;43.12;100227.75;10835644;26;20027;-22
2024/05/01 13:19:57;;;;;;;10.43;6.20;;;;;;;28.77;44.22;100217.31;10831633;26;21483;-24
2024/05/01 13:25:08;;;;;;;7.97;5.88;;;;;;;28.82;45.80;100216.72;10833669;26;23229;-23
2024/05/01 13:31:02;;;;;;;9.52;5.93;;;;;;;28.33;46.27;100200.84;10823804;26;20007;-22
2024/05/01 13:36:06;;;;;;;11.93;5.78;;;;;;;28.69;43.55;100182.88;10826113;26;23240;-22
2024/05/01 13:41:12;;;;;;;9.93;5.72;;;;;;;28.20;43.42;100191.06;10830048;26;23384;-22
2024/05/01 13:46:26;;;;;;;9.63;5.93;;;;;;;28.25;43.18;100179.47;10815761;26;20118;-19
2024/05/01 13:51:29;;;;;;;9.65;5.70;;;;;;;29.24;43.41;100180.25;10828903;26;20020;-19
2024/05/01 13:56:36;;;;;;;13.68;5.68;;;;;;;29.05;40.49;100166.38;10828977;26;20034;-17
2024/05/01 14:01:41;;;;;;;7.60;4.93;;;;;;;29.37;41.58;100156.00;10825293;26;20024;-18
2024/05/01 14:06:46;;;;;;;8.95;4.63;;;;;;;28.82;41.32;100155.91;10829229;26;20484;-19
2024/05/01 14:11:54;;;;;;;11.88;5.55;;;;;;;28.51;41.84;100142.13;10835949;26;22695;-18
2024/05/01 14:16:57;;;;;;;10.32;4.60;;;;;;;29.02;42.54;100138.88;10834894;26;20008;-19
2024/05/01 14:22:34;;;;;;;13.45;5.82;;;;;;;29.08;41.83;100125.22;10828461;26;20666;-18
2024/05/01 14:27:40;;;;;;;8.23;5.22;;;;;;;29.37;41.38;100133.09;10791511;26;20823;-22
2024/05/01 14:32:51;;;;;;;7.18;5.80;;;;;;;28.82;42.04;100122.72;10827477;26;23937;-22
2024/05/01 14:37:55;;;;;;;7.20;5.35;;;;;;;28.74;42.17;100102.16;10830950;26;20070;-23
2024/05/01 14:43:03;;;;;;;8.18;4.85;;;;;;;29.25;41.40;100093.28;10827549;26;20631;-22
2024/05/01 14:48:19;;;;;;;11.75;6.07;;;;;;;29.09;41.07;100085.28;10827713;26;20490;-22
2024/05/01 14:53:33;;;;;;;8.98;5.60;;;;;;;29.18;40.49;100085.31;10831388;26;20016;-22
2024/05/01 14:58:40;;;;;;;10.77;5.78;;;;;;;29.34;42.96;100085.78;10806124;26;20995;-22
2024/05/01 15:03:44;;;;;;;6.72;5.38;;;;;;;28.56;43.61;100088.25;10818280;26;20027;-23
2024/05/01 15:08:49;;;;;;;10.25;5.80;;;;;;;29.21;40.78;100076.06;10819400;26;20015;-22
2024/05/01 15:13:56;;;;;;;9.93;5.53;;;;;;;29.18;40.97;100079.78;10823847;26;20965;-22
2024/05/01 15:18:59;;;;;;;8.82;6.15;;;;;;;28.32;42.78;100066.72;10831670;26;20011;-23
2024/05/01 15:24:03;;;;;;;10.23;5.40;;;;;;;28.90;42.13;100062.38;10822412;26;20016;-23
2024/05/01 15:29:10;;;;;;;7.88;5.32;;;;;;;28.71;42.32;100050.53;10823198;26;20016;-24
2024/05/01 15:34:14;;;;;;;8.55;4.97;;;;;;;28.36;41.98;100038.97;10834737;26;20016;-21
2024/05/01 15:39:18;;;;;;;8.18;4.40;;;;;;;28.38;42.92;100040.03;10827370;26;20109;-21
2024/05/01 15:44:24;;;;;;;9.73;4.45;;;;;;;28.68;42.36;100032.88;10837467;26;20012;-22
2024/05/01 15:49:33;;;;;;;8.70;4.70;;;;;;;28.19;40.66;100026.63;10835933;26;20029;-22
2024/05/01 15:54:37;;;;;;;7.95;3.97;;;;;;;28.31;41.10;100021.00;10837385;26;21651;-22
2024/05/01 15:59:45;;;;;;;8.55;4.65;;;;;;;28.31;41.26;100023.75;10832131;26;20011;-22
2024/05/01 16:04:51;;;;;;;10.18;5.13;;;;;;;28.00;41.78;100014.72;10836082;26;20012;-22
2024/05/01 16:10:02;;;;;;;8.77;4.82;;;;;;;27.94;42.09;100002.75;10821910;26;22794;-21
2024/05/01 16:15:15;;;;;;;10.52;5.05;;;;;;;27.86;42.16;99993.19;10839924;26;20027;-22
2024/05/01 16:20:19;;;;;;;9.57;4.57;;;;;;;28.03;43.15;99988.97;10863608;26;20030;-22
2024/05/01 16:25:43;;;;;;;7.75;4.15;;;;;;;27.97;42.15;99988.03;10836824;26;20031;-21
2024/05/01 16:30:49;;;;;;;9.65;3.97;;;;;;;27.96;42.15;99980.97;10829343;26;20026;-21
2024/05/01 16:35:53;;;;;;;7.45;3.90;;;;;;;27.83;41.61;99977.56;10831661;26;23841;-22
2024/05/01 16:40:57;;;;;;;12.05;4.18;;;;;;;27.77;42.04;99958.84;10847352;26;20019;-22
2024/05/01 16:46:04;;;;;;;8.63;3.85;;;;;;;27.86;42.65;99968.38;10851749;26;20037;-21
2024/05/01 16:51:08;;;;;;;9.25;3.97;;;;;;;27.60;43.44;99965.81;10848092;26;21070;-21
2024/05/01 16:56:16;;;;;;;7.95;3.50;;;;;;;27.49;42.42;99961.94;10842449;26;20633;-22
2024/05/01 17:01:31;;;;;;;8.95;3.85;;;;;;;27.41;42.75;99958.66;10846157;26;21035;-22
2024/05/01 17:06:35;;;;;;;7.53;3.75;;;;;;;27.06;43.55;99947.72;10844274;26;20661;-21
2024/05/01 17:11:39;;;;;;;9.95;3.90;;;;;;;26.97;44.25;99952.41;10843440;26;20016;-22
2024/05/01 17:16:46;;;;;;;6.68;3.78;;;;;;;26.76;44.82;99964.94;10841363;26;20698;-21
2024/05/01 17:21:50;;;;;;;8.68;3.97;;;;;;;26.51;45.59;99972.09;10840774;26;23014;-21
2024/05/01 17:26:53;;;;;;;8.50;3.90;;;;;;;26.39;46.00;99966.59;10837826;26;23187;-25
2024/05/01 17:32:01;;;;;;;7.05;4.10;;;;;;;26.13;47.14;99965.84;10849253;26;21018;-22
2024/05/01 17:37:05;;;;;;;8.00;4.78;;;;;;;25.98;48.05;99953.75;10847490;26;20901;-22
2024/05/01 17:42:08;;;;;;;8.15;4.07;;;;;;;25.86;47.39;99966.31;10869482;26;20055;-21
2024/05/01 17:47:16;;;;;;;8.75;3.50;;;;;;;25.42;48.77;99968.78;10872250;26;20420;-22
2024/05/01 17:52:35;;;;;;;6.45;3.42;;;;;;;24.89;44.72;99945.59;10853116;26;20076;-22
2024/05/01 17:57:40;;;;;;;6.18;3.17;;;;;;;24.69;46.33;99942.94;10848542;26;23934;-21
2024/05/01 18:02:46;;;;;;;6.55;3.28;;;;;;;24.40;48.19;99933.91;10833229;26;20015;-21
2024/05/01 18:07:50;;;;;;;10.52;4.05;;;;;;;24.28;48.28;99933.44;10859378;26;20392;-22
2024/05/01 18:12:54;;;;;;;8.00;3.42;;;;;;;24.15;49.49;99929.06;10854544;26;20031;-21
2024/05/01 18:18:01;;;;;;;6.88;3.60;;;;;;;24.04;50.90;99939.50;10850042;26;20008;-21
2024/05/01 18:23:10;;;;;;;7.90;3.08;;;;;;;23.67;53.53;99941.53;10846938;26;23859;-21
2024/05/01 18:28:13;;;;;;;6.80;3.38;;;;;;;23.53;54.23;99950.06;10854669;26;20106;-21
2024/05/01 18:33:20;;;;;;;6.13;3.58;;;;;;;23.60;53.81;99945.19;10851005;26;20706;-21
2024/05/01 18:38:24;;;;;;;7.72;3.40;;;;;;;23.65;53.46;99941.94;10853945;26;20021;-20
2024/05/01 18:43:28;;;;;;;6.68;3.58;;;;;;;23.78;52.62;99938.53;10854286;26;20012;-21
2024/05/01 18:48:36;;;;;;;7.85;3.78;;;;;;;23.76;52.14;99925.25;10836583;26;20013;-21
2024/05/01 18:53:40;;;;;;;5.65;3.65;;;;;;;23.99;50.60;99914.13;10846536;26;20027;-22
2024/05/01 18:58:44;;;;;;;6.28;3.70;;;;;;;23.82;51.84;99920.78;10853583;26;20832;-20
2024/05/01 19:03:51;;;;;;;6.97;3.88;;;;;;;23.75;51.69;99931.16;10856736;26;20500;-21
2024/05/01 19:08:58;;;;;;;6.03;3.30;;;;;;;23.65;51.79;99935.69;10840478;26;20034;-21
2024/05/01 19:14:03;;;;;;;7.50;3.40;;;;;;;23.61;52.40;99935.00;10867286;26;20012;-21
2024/05/01 19:19:09;;;;;;;6.50;3.30;;;;;;;23.40;52.76;99935.47;10839083;26;21241;-20
2024/05/01 19:24:30;;;;;;;6.63;3.42;;;;;;;23.52;51.94;99935.59;10870305;26;20059;-21
2024/05/01 19:29:35;;;;;;;7.40;3.83;;;;;;;23.51;51.49;99945.00;10837760;26;25004;-20
2024/05/01 19:34:43;;;;;;;6.80;3.42;;;;;;;23.51;50.67;99955.19;10893448;26;20488;-20
2024/05/01 19:39:49;;;;;;;6.88;3.60;;;;;;;23.53;50.48;99950.06;10848068;26;20012;-21
2024/05/01 19:44:53;;;;;;;6.55;3.28;;;;;;;23.82;48.54;99940.00;10845120;26;20011;-20
2024/05/01 19:50:01;;;;;;;8.95;3.88;;;;;;;23.51;50.78;99939.53;10833643;26;20078;-20
2024/05/01 19:55:40;;;;;;;8.25;3.50;;;;;;;23.11;53.41;99921.59;10843103;26;23005;-21
2024/05/01 20:00:44;;;;;;;8.65;3.75;;;;;;;22.98;52.33;99915.94;10807643;26;20773;-17
2024/05/01 20:05:51;;;;;;;6.50;3.03;;;;;;;22.99;51.66;99915.53;10840836;26;20401;-17
2024/05/01 20:10:56;;;;;;;5.40;2.92;;;;;;;22.95;50.05;99903.09;10821215;26;20059;-16
2024/05/01 20:16:01;;;;;;;5.32;3.00;;;;;;;22.54;52.45;99898.81;10837359;26;20031;-18
2024/05/01 20:21:15;;;;;;;9.68;2.53;;;;;;;22.61;48.83;99904.16;10836516;26;20012;-17
2024/05/01 20:26:21;;;;;;;6.57;2.43;;;;;;;22.32;50.34;99908.59;10849750;26;20459;-18
2024/05/01 20:31:24;;;;;;;11.80;2.80;;;;;;;21.95;52.99;99885.75;10841988;26;21341;-16
2024/05/01 20:36:31;;;;;;;6.90;2.63;;;;;;;21.94;52.99;99878.72;10838206;26;20015;-17
2024/05/01 20:41:34;;;;;;;6.28;2.95;;;;;;;21.93;54.51;99890.09;10841541;26;20474;-18
2024/05/01 20:46:39;;;;;;;5.00;2.63;;;;;;;21.77;55.22;99890.72;10834390;26;20021;-18
2024/05/01 20:51:46;;;;;;;7.82;3.05;;;;;;;21.75;54.61;99884.91;10813920;26;20124;-18
2024/05/01 20:56:49;;;;;;;6.78;3.15;;;;;;;21.66;54.72;99892.81;10838425;26;20012;-18
2024/05/01 21:01:53;;;;;;;9.13;3.30;;;;;;;21.59;56.09;99887.47;10856585;26;20530;-18
2024/05/01 21:07:00;;;;;;;6.57;3.17;;;;;;;21.67;57.07;99883.44;10854055;26;20093;-18
2024/05/01 21:12:04;;;;;;;7.05;3.55;;;;;;;21.64;57.41;99876.06;10855394;26;20030;-17
2024/05/01 21:17:08;;;;;;;7.80;3.80;;;;;;;21.52;58.56;99873.91;10853048;26;20008;-18
2024/05/01 21:22:14;;;;;;;6.22;3.58;;;;;;;21.44;60.40;99870.53;10805691;26;976239;-18
2024/05/01 21:27:18;;;;;;;6.03;3.75;;;;;;;21.46;59.59;99844.31;10852885;26;24492;-17
2024/05/01 21:32:22;;;;;;;8.20;3.65;;;;;;;21.51;59.40;99815.00;10839993;26;20016;-17
2024/05/01 21:37:29;;;;;;;6.40;3.72;;;;;;;21.50;59.02;99808.75;10846757;26;20025;-17
2024/05/01 21:42:32;;;;;;;8.57;3.08;;;;;;;21.61;56.43;99803.13;10849677;26;20020;-18
2024/05/01 21:47:36;;;;;;;;;;;;;;;21.44;54.92;99813.16;10848186;26;20140;-18
2024/05/01 21:52:43;;;;;;;5.93;2.80;;;;;;;21.93;52.41;99830.72;10849325;26;20344;-20
2024/05/01 21:57:46;;;;;;;9.93;3.30;;;;;;;22.04;52.62;99834.03;10849708;26;20396;-18
2024/05/01 22:02:53;;;;;;;7.72;3.13;;;;;;;21.93;54.26;99827.19;10852596;26;20855;-18
2024/05/01 22:08:00;;;;;;;7.25;3.65;;;;;;;21.53;56.96;99823.53;10854393;26;20012;-17
2024/05/01 22:13:04;;;;;;;6.43;3.63;;;;;;;21.41;58.91;99833.88;10860513;26;20230;-17
2024/05/01 22:18:07;;;;;;;;;;;;;;;21.12;60.98;99833.50;10852893;26;20583;-17
2024/05/01 22:23:14;;;;;;;8.15;3.97;;;;;;;21.15;61.17;99829.94;10846646;26;20405;-17
2024/05/01 22:28:18;;;;;;;8.90;3.90;;;;;;;20.91;62.66;99828.31;10855421;26;21013;-18
2024/05/01 22:33:22;;;;;;;7.28;4.20;;;;;;;20.95;62.79;99829.03;10860530;26;21095;-18
2024/05/01 22:38:28;;;;;;;;;;;;;;;20.90;63.20;99823.28;10857740;26;21204;-18
2024/05/01 22:43:33;;;;;;;8.65;4.10;;;;;;;20.62;64.56;99814.25;10861651;26;19945;-17
2024/05/01 22:48:37;;;;;;;6.80;4.22;;;;;;;20.56;65.48;99817.81;10858753;26;20368;-18
2024/05/01 22:53:43;;;;;;;8.30;4.53;;;;;;;20.32;66.84;99811.44;10856237;26;21455;-17
2024/05/01 22:58:49;;;;;;;9.77;4.50;;;;;;;20.10;67.63;99811.69;10855076;26;20055;-17
2024/05/01 23:03:53;;;;;;;6.47;4.43;;;;;;;19.90;67.87;99799.78;10852481;26;24424;-18
2024/05/01 23:08:59;;;;;;;;;;;;;;;19.90;67.97;99800.56;10855563;26;20062;-17
2024/05/01 23:14:03;;;;;;;9.85;5.22;;;;;;;19.86;68.15;99791.63;10861695;26;22806;-18
2024/05/01 23:19:07;;;;;;;;;;;;;;;19.72;68.96;99786.31;10853460;26;22899;-17
2024/05/01 23:24:13;;;;;;;7.78;5.00;;;;;;;19.53;70.54;99782.19;10856606;26;19936;-18
2024/05/01 23:29:17;;;;;;;8.55;5.13;;;;;;;19.32;70.89;99771.44;10853931;26;20016;-18
2024/05/01 23:34:20;;;;;;;;;;;;;;;19.17;71.17;99764.56;10862069;26;20717;-17